createdAt,value
2018-09-12T00:01:58.408Z,2.20
2018-09-12T00:04:32.309Z,2.40
2018-09-12T00:07:06.319Z,2.63
2018-09-12T00:09:40.069Z,2.23
2018-09-12T00:12:13.900Z,2.83
2018-09-12T00:14:47.724Z,2.93
2018-09-12T00:17:21.765Z,2.50
2018-09-12T00:19:55.484Z,2.43
2018-09-12T00:22:29.361Z,2.30
2018-09-12T00:25:03.132Z,2.03
2018-09-12T00:27:36.900Z,2.70
2018-09-12T00:30:11.092Z,1.93
2018-09-12T00:32:44.808Z,2.10
2018-09-12T00:35:18.605Z,1.73
2018-09-12T00:37:52.441Z,2.60
2018-09-12T00:40:26.183Z,1.60
2018-09-12T00:43:00.025Z,2.67
2018-09-12T00:45:33.912Z,1.93
2018-09-12T00:48:07.858Z,1.70
2018-09-12T00:50:41.621Z,1.37
2018-09-12T00:53:15.457Z,2.37
2018-09-12T00:55:49.334Z,2.17
2018-09-12T00:58:23.232Z,1.80
2018-09-12T01:00:57.025Z,1.40
2018-09-12T01:03:30.945Z,1.50
2018-09-12T01:06:04.805Z,1.80
2018-09-12T01:08:38.893Z,1.83
2018-09-12T01:11:12.632Z,0.63
2018-09-12T01:13:46.515Z,1.20
2018-09-12T01:16:20.172Z,1.10
2018-09-12T01:18:54.104Z,1.43
2018-09-12T01:21:27.743Z,1.60
2018-09-12T01:24:01.529Z,1.60
2018-09-12T01:26:35.252Z,1.57
2018-09-12T01:29:09.202Z,1.20
2018-09-12T01:31:43.001Z,1.27
2018-09-12T01:34:16.821Z,2.00
2018-09-12T01:36:50.697Z,0.90
2018-09-12T01:39:24.493Z,1.23
2018-09-12T01:41:58.278Z,1.47
2018-09-12T01:44:32.134Z,1.27
2018-09-12T01:47:05.999Z,1.70
2018-09-12T01:49:39.895Z,1.27
2018-09-12T01:52:13.813Z,0.87
2018-09-12T01:54:47.544Z,1.50
2018-09-12T01:57:21.366Z,0.67
2018-09-12T01:59:55.207Z,1.23
2018-09-12T02:02:29.066Z,0.80
2018-09-12T02:05:02.939Z,1.20
2018-09-12T02:07:37.711Z,1.20
2018-09-12T02:10:12.799Z,1.30
2018-09-12T02:12:46.614Z,1.50
2018-09-12T02:15:20.442Z,0.90
2018-09-12T02:17:54.103Z,1.50
2018-09-12T02:20:27.982Z,1.13
2018-09-12T02:23:01.798Z,1.40
2018-09-12T02:25:35.511Z,1.60
2018-09-12T02:28:09.109Z,0.73
2018-09-12T02:30:42.837Z,0.83
2018-09-12T02:33:16.590Z,1.27
2018-09-12T02:35:55.661Z,1.40
2018-09-12T02:38:29.500Z,1.50
2018-09-12T02:41:03.361Z,0.87
2018-09-12T02:43:37.049Z,1.23
2018-09-12T02:46:10.962Z,1.40
2018-09-12T02:48:44.734Z,1.20
2018-09-12T02:51:18.448Z,1.40
2018-09-12T02:53:52.281Z,1.33
2018-09-12T02:56:26.042Z,1.90
2018-09-12T02:59:00.013Z,1.20
2018-09-12T03:01:33.862Z,1.67
2018-09-12T03:04:07.687Z,1.53
2018-09-12T03:06:41.602Z,1.53
2018-09-12T03:09:15.346Z,1.10
2018-09-12T03:11:49.230Z,1.83
2018-09-12T03:14:23.126Z,2.00
2018-09-12T03:16:56.993Z,1.70
2018-09-12T03:19:30.843Z,1.30
2018-09-12T03:22:04.832Z,0.70
2018-09-12T03:24:38.829Z,1.53
2018-09-12T03:27:12.669Z,1.23
2018-09-12T03:29:46.504Z,1.53
2018-09-12T03:32:20.462Z,1.60
2018-09-12T03:34:54.319Z,1.73
2018-09-12T03:37:28.384Z,1.47
2018-09-12T03:40:02.131Z,1.40
2018-09-12T03:42:36.111Z,1.50
2018-09-12T03:45:09.828Z,1.43
2018-09-12T03:47:43.924Z,1.70
2018-09-12T03:50:17.702Z,1.30
2018-09-12T03:52:51.545Z,2.03
2018-09-12T03:55:25.421Z,1.13
2018-09-12T03:57:59.331Z,1.60
2018-09-12T04:00:33.242Z,1.77
2018-09-12T04:03:07.258Z,2.10
2018-09-12T04:05:41.269Z,2.07
2018-09-12T04:08:15.054Z,2.17
2018-09-12T04:10:48.943Z,1.77
2018-09-12T04:13:22.884Z,1.60
2018-09-12T04:15:56.628Z,2.30
2018-09-12T04:18:30.681Z,1.83
2018-09-12T04:21:04.619Z,1.90
2018-09-12T04:23:38.370Z,1.80
2018-09-12T04:26:12.210Z,2.27
2018-09-12T04:28:46.223Z,1.70
2018-09-12T04:31:20.058Z,2.03
2018-09-12T04:33:53.830Z,2.17
2018-09-12T04:36:27.719Z,1.93
2018-09-12T04:39:01.489Z,2.67
2018-09-12T04:41:35.202Z,1.90
2018-09-12T04:44:09.920Z,2.50
2018-09-12T04:46:43.928Z,2.10
2018-09-12T04:49:18.171Z,1.70
2018-09-12T04:51:52.098Z,2.87
2018-09-12T04:54:26.173Z,2.70
2018-09-12T04:56:59.954Z,1.80
2018-09-12T04:59:33.896Z,2.07
2018-09-12T05:02:08.224Z,1.50
2018-09-12T05:04:41.916Z,2.60
2018-09-12T05:07:16.487Z,2.20
2018-09-12T05:09:50.585Z,2.30
2018-09-12T05:12:24.709Z,2.07
2018-09-12T05:14:58.691Z,1.97
2018-09-12T05:17:32.774Z,2.23
2018-09-12T05:20:06.677Z,2.30
2018-09-12T05:22:40.776Z,2.60
2018-09-12T05:25:14.761Z,2.00
2018-09-12T05:27:49.588Z,2.70
2018-09-12T05:30:23.445Z,2.20
2018-09-12T05:32:57.581Z,2.60
2018-09-12T05:35:32.071Z,2.97
2018-09-12T05:38:06.159Z,2.23
2018-09-12T05:40:40.349Z,1.97
2018-09-12T05:43:14.369Z,2.77
2018-09-12T05:45:48.305Z,2.40
2018-09-12T05:48:22.411Z,2.13
2018-09-12T05:50:57.183Z,2.57
2018-09-12T05:53:31.203Z,1.50
2018-09-12T05:56:05.192Z,2.50
2018-09-12T05:58:39.237Z,2.50
2018-09-12T06:01:13.209Z,2.50
2018-09-12T06:03:47.060Z,2.57
2018-09-12T06:06:21.112Z,2.57
2018-09-12T06:08:54.777Z,1.60
2018-09-12T06:11:28.562Z,1.70
2018-09-12T06:14:02.541Z,2.80
2018-09-12T06:16:36.772Z,2.13
2018-09-12T06:19:10.662Z,2.30
2018-09-12T06:21:44.610Z,2.20
2018-09-12T06:24:18.379Z,2.33
2018-09-12T06:26:52.406Z,2.97
2018-09-12T06:29:26.151Z,2.13
2018-09-12T06:32:00.036Z,2.43
2018-09-12T06:34:33.807Z,2.93
2018-09-12T06:37:07.632Z,2.37
2018-09-12T06:39:42.276Z,3.10
2018-09-12T06:42:16.235Z,2.57
2018-09-12T06:44:49.996Z,0.80
2018-09-12T06:47:23.896Z,2.40
2018-09-12T06:49:57.692Z,2.80
2018-09-12T06:52:31.630Z,2.30
2018-09-12T06:55:06.260Z,2.10
2018-09-12T06:57:40.168Z,2.40
2018-09-12T07:00:14.091Z,2.10
2018-09-12T07:02:48.035Z,2.40
2018-09-12T07:05:21.855Z,1.60
2018-09-12T07:07:55.716Z,2.30
2018-09-12T07:10:29.566Z,2.80
2018-09-12T07:13:03.632Z,3.20
2018-09-12T07:15:37.755Z,2.20
2018-09-12T07:18:11.779Z,2.10
2018-09-12T07:20:45.671Z,2.13
2018-09-12T07:23:19.555Z,1.70
2018-09-12T07:25:53.371Z,2.13
2018-09-12T07:28:27.310Z,1.70
2018-09-12T07:31:01.194Z,1.80
2018-09-12T07:33:35.075Z,2.00
2018-09-12T07:36:08.981Z,2.40
2018-09-12T07:38:42.939Z,1.70
2018-09-12T07:41:16.758Z,1.43
2018-09-12T07:43:50.731Z,2.10
2018-09-12T07:46:24.640Z,2.20
2018-09-12T07:49:05.131Z,2.23
2018-09-12T07:51:39.073Z,1.97
2018-09-12T07:54:13.117Z,1.50
2018-09-12T07:56:46.865Z,1.50
2018-09-12T07:59:20.530Z,1.47
2018-09-12T08:01:54.480Z,2.07
2018-09-12T08:04:28.396Z,2.17
2018-09-12T08:07:02.247Z,2.53
2018-09-12T08:09:36.009Z,2.50
2018-09-12T08:12:09.745Z,2.00
2018-09-12T08:14:43.688Z,1.67
2018-09-12T08:17:17.599Z,2.27
2018-09-12T08:19:51.517Z,1.70
2018-09-12T08:22:25.300Z,2.30
2018-09-12T08:24:59.235Z,2.33
2018-09-12T08:27:33.010Z,2.60
2018-09-12T08:30:07.448Z,2.40
2018-09-12T08:32:41.630Z,2.00
2018-09-12T08:35:17.376Z,1.80
2018-09-12T08:37:51.336Z,1.87
2018-09-12T08:40:25.198Z,2.20
2018-09-12T08:42:59.040Z,1.80
2018-09-12T08:45:33.022Z,2.17
2018-09-12T08:48:06.920Z,2.07
2018-09-12T08:50:40.745Z,2.10
2018-09-12T08:53:14.526Z,1.97
2018-09-12T08:55:49.061Z,2.20
2018-09-12T08:58:22.999Z,2.00
2018-09-12T09:00:56.904Z,1.80
2018-09-12T09:03:30.850Z,1.97
2018-09-12T09:06:04.812Z,2.60
2018-09-12T09:08:38.922Z,2.50
2018-09-12T09:11:12.985Z,1.83
2018-09-12T09:13:46.925Z,2.10
2018-09-12T09:16:20.822Z,1.80
2018-09-12T09:18:54.689Z,2.00
2018-09-12T09:21:28.575Z,2.20
2018-09-12T09:24:04.206Z,1.53
2018-09-12T09:26:38.516Z,1.90
2018-09-12T09:29:12.364Z,2.10
2018-09-12T09:31:46.050Z,0.80
2018-09-12T09:34:19.872Z,1.37
2018-09-12T09:36:53.533Z,1.03
2018-09-12T09:39:27.282Z,0.70
2018-09-12T09:42:01.101Z,1.40
2018-09-12T09:44:34.985Z,1.27
2018-09-12T09:47:08.849Z,1.57
2018-09-12T09:49:42.568Z,1.17
2018-09-12T09:52:16.438Z,1.07
2018-09-12T09:54:50.265Z,0.97
2018-09-12T09:57:24.113Z,1.63
2018-09-12T09:59:57.976Z,0.77
2018-09-12T10:02:36.910Z,1.20
2018-09-12T10:05:16.004Z,0.47
2018-09-12T10:09:56.176Z,1.40
2018-09-12T10:12:29.835Z,1.27
2018-09-12T10:15:04.740Z,1.70
2018-09-12T10:17:38.458Z,0.50
2018-09-12T10:20:12.426Z,1.07
2018-09-12T10:22:46.217Z,1.33
2018-09-12T10:25:19.856Z,1.00
2018-09-12T10:27:53.668Z,1.00
2018-09-12T10:30:27.597Z,1.00
2018-09-12T10:33:01.115Z,1.13
2018-09-12T10:35:34.942Z,1.30
2018-09-12T10:38:08.756Z,1.53
2018-09-12T10:40:42.653Z,0.97
2018-09-12T10:43:16.374Z,1.30
2018-09-12T10:45:50.189Z,1.47
2018-09-12T10:48:24.029Z,1.40
2018-09-12T10:50:58.694Z,1.10
2018-09-12T10:53:32.638Z,0.67
2018-09-12T10:56:06.442Z,1.60
2018-09-12T10:58:40.537Z,1.77
2018-09-12T11:01:14.457Z,0.67
2018-09-12T11:03:48.178Z,1.27
2018-09-12T11:06:22.971Z,1.30
2018-09-12T11:08:56.660Z,1.40
2018-09-12T11:11:30.627Z,0.60
2018-09-12T11:14:04.449Z,0.97
2018-09-12T11:16:38.061Z,1.20
2018-09-12T11:19:11.975Z,0.90
2018-09-12T11:21:45.869Z,0.70
2018-09-12T11:24:19.758Z,0.90
2018-09-12T11:26:53.566Z,0.40
2018-09-12T11:29:27.220Z,0.80
2018-09-12T11:32:01.029Z,1.40
2018-09-12T11:34:34.825Z,0.70
2018-09-12T11:37:08.868Z,0.93
2018-09-12T11:39:42.552Z,0.67
2018-09-12T11:42:16.159Z,0.50
2018-09-12T11:44:49.952Z,0.60
2018-09-12T11:47:24.181Z,0.67
2018-09-12T11:50:01.188Z,0.60
2018-09-12T11:52:35.203Z,0.37
2018-09-12T11:55:08.992Z,0.40
2018-09-12T11:57:42.811Z,0.63
2018-09-12T12:00:16.645Z,1.10
2018-09-12T12:02:50.518Z,0.90
2018-09-12T12:05:24.474Z,1.20
2018-09-12T12:07:58.270Z,1.03
2018-09-12T12:10:32.166Z,0.70
2018-09-12T12:13:05.922Z,1.30
2018-09-12T12:15:39.609Z,0.87
2018-09-12T12:18:13.440Z,0.83
2018-09-12T12:20:47.266Z,0.90
2018-09-12T12:23:21.024Z,1.80
2018-09-12T12:25:54.746Z,0.30
2018-09-12T12:28:28.356Z,1.10
2018-09-12T12:31:02.079Z,1.10
2018-09-12T12:33:35.871Z,1.43
2018-09-12T12:36:09.911Z,1.50
2018-09-12T12:38:43.722Z,1.10
2018-09-12T12:41:17.604Z,1.40
2018-09-12T12:43:51.432Z,1.03
2018-09-12T12:46:25.148Z,0.63
2018-09-12T12:48:58.977Z,1.03
2018-09-12T12:51:32.553Z,0.40
2018-09-12T12:54:06.568Z,0.80
2018-09-12T12:56:40.194Z,1.13
2018-09-12T12:59:14.068Z,0.80
2018-09-12T13:01:47.681Z,0.83
2018-09-12T13:04:21.825Z,1.57
2018-09-12T13:06:55.628Z,1.00
2018-09-12T13:09:29.371Z,0.80
2018-09-12T13:12:03.128Z,0.63
2018-09-12T13:14:37.002Z,0.93
2018-09-12T13:17:10.744Z,1.53
2018-09-12T13:19:44.575Z,1.17
2018-09-12T13:22:18.462Z,0.97
2018-09-12T13:24:52.293Z,1.23
2018-09-12T13:27:25.953Z,1.00
2018-09-12T13:29:59.848Z,1.03
2018-09-12T13:32:33.621Z,0.50
2018-09-12T13:35:07.445Z,0.60
2018-09-12T13:37:41.208Z,0.70
2018-09-12T13:40:15.025Z,1.30
2018-09-12T13:42:48.602Z,1.13
2018-09-12T13:45:22.283Z,0.53
2018-09-12T13:47:56.147Z,0.53
2018-09-12T13:50:29.916Z,0.97
2018-09-12T13:53:03.803Z,1.13
2018-09-12T13:55:37.453Z,0.70
2018-09-12T13:58:11.327Z,1.20
2018-09-12T14:00:46.239Z,0.37
2018-09-12T14:03:20.301Z,0.33
2018-09-12T14:05:53.983Z,1.30
2018-09-12T14:08:27.848Z,0.47
2018-09-12T14:11:01.569Z,0.57
2018-09-12T14:13:35.212Z,0.50
2018-09-12T14:16:08.814Z,0.50
2018-09-12T14:18:42.820Z,1.30
2018-09-12T14:21:16.516Z,0.43
2018-09-12T14:23:50.197Z,0.60
2018-09-12T14:26:23.905Z,0.80
2018-09-12T14:28:57.781Z,0.93
2018-09-12T14:31:31.617Z,1.20
2018-09-12T14:34:05.459Z,0.60
2018-09-12T14:36:39.330Z,0.93
2018-09-12T14:39:13.329Z,0.80
2018-09-12T14:41:47.032Z,0.73
2018-09-12T14:44:20.664Z,1.00
2018-09-12T14:46:54.464Z,0.97
2018-09-12T14:49:28.076Z,0.50
2018-09-12T14:52:01.902Z,0.80
2018-09-12T14:54:35.717Z,0.70
2018-09-12T14:57:09.573Z,0.80
2018-09-12T14:59:43.493Z,0.60
2018-09-12T15:02:17.480Z,0.80
2018-09-12T15:04:51.166Z,1.20
2018-09-12T15:07:24.901Z,0.63
2018-09-12T15:09:58.560Z,0.53
2018-09-12T15:12:32.429Z,0.47
2018-09-12T15:15:06.185Z,1.23
2018-09-12T15:17:39.802Z,0.90
2018-09-12T15:20:14.202Z,0.13
2018-09-12T15:22:48.013Z,1.00
2018-09-12T15:25:21.842Z,0.20
2018-09-12T15:27:55.851Z,1.00
2018-09-12T15:30:29.512Z,0.60
2018-09-12T15:33:03.301Z,0.53
2018-09-12T15:35:36.860Z,0.83
2018-09-12T15:38:10.716Z,1.03
2018-09-12T15:40:44.418Z,0.33
2018-09-12T15:43:18.362Z,0.63
2018-09-12T15:45:52.286Z,0.90
2018-09-12T15:48:26.158Z,0.77
2018-09-12T15:50:59.908Z,1.13
2018-09-12T15:53:33.782Z,0.80
2018-09-12T15:56:07.606Z,0.70
2018-09-12T15:58:41.569Z,0.67
2018-09-12T16:01:15.247Z,1.03
2018-09-12T16:03:49.226Z,0.73
2018-09-12T16:06:22.993Z,0.60
2018-09-12T16:08:56.852Z,0.90
2018-09-12T16:11:30.410Z,0.33
2018-09-12T16:14:04.347Z,1.33
2018-09-12T16:16:38.001Z,0.93
2018-09-12T16:19:11.775Z,0.30
2018-09-12T16:21:45.610Z,0.33
2018-09-12T16:24:19.483Z,1.27
2018-09-12T16:26:53.152Z,0.57
2018-09-12T16:29:26.790Z,0.87
2018-09-12T16:32:00.466Z,0.70
2018-09-12T16:34:34.307Z,0.87
2018-09-12T16:37:08.137Z,0.33
2018-09-12T16:39:41.983Z,0.70
2018-09-12T16:42:15.824Z,0.90
2018-09-12T16:44:49.738Z,1.00
2018-09-12T16:47:23.582Z,0.57
2018-09-12T16:49:57.373Z,0.27
2018-09-12T16:52:31.210Z,0.97
2018-09-12T16:55:05.114Z,0.97
2018-09-12T16:57:38.809Z,0.60
2018-09-12T17:00:12.665Z,0.47
2018-09-12T17:02:46.354Z,0.50
2018-09-12T17:05:20.390Z,0.50
2018-09-12T17:07:54.067Z,0.70
2018-09-12T17:10:27.911Z,0.80
2018-09-12T17:13:01.725Z,1.10
2018-09-12T17:15:35.640Z,0.20
2018-09-12T17:18:09.477Z,0.50
2018-09-12T17:20:43.110Z,0.57
2018-09-12T17:23:16.899Z,0.93
2018-09-12T17:25:50.766Z,0.60
2018-09-12T17:28:24.956Z,0.63
2018-09-12T17:30:58.683Z,0.33
2018-09-12T17:33:32.537Z,0.63
2018-09-12T17:36:06.265Z,0.70
2018-09-12T17:38:40.086Z,1.03
2018-09-12T17:41:13.934Z,0.83
2018-09-12T17:43:47.642Z,0.70
2018-09-12T17:46:21.502Z,0.80
2018-09-12T17:48:55.327Z,0.70
2018-09-12T17:51:29.300Z,0.90
2018-09-12T17:54:04.016Z,0.90
2018-09-12T17:56:37.930Z,1.20
2018-09-12T17:59:11.893Z,0.70
2018-09-12T18:01:45.647Z,0.40
2018-09-12T18:04:19.544Z,0.60
2018-09-12T18:06:53.439Z,0.43
2018-09-12T18:09:27.084Z,0.90
2018-09-12T18:12:00.772Z,1.37
2018-09-12T18:14:34.679Z,1.10
2018-09-12T18:17:08.399Z,0.83
2018-09-12T18:19:42.276Z,0.60
2018-09-12T18:22:16.056Z,1.10
2018-09-12T18:24:50.080Z,0.73
2018-09-12T18:27:23.959Z,1.00
2018-09-12T18:29:57.737Z,1.00
2018-09-12T18:32:31.672Z,0.83
2018-09-12T18:35:05.525Z,0.87
2018-09-12T18:37:39.409Z,0.83
2018-09-12T18:40:13.180Z,0.30
2018-09-12T18:42:46.982Z,0.80
2018-09-12T18:45:20.690Z,1.00
2018-09-12T18:47:54.680Z,1.00
2018-09-12T18:50:28.448Z,1.33
2018-09-12T18:53:02.321Z,0.83
2018-09-12T18:55:36.192Z,1.03
2018-09-12T18:58:10.068Z,0.73
2018-09-12T19:00:43.914Z,0.87
2018-09-12T19:03:17.837Z,1.17
2018-09-12T19:05:51.625Z,1.30
2018-09-12T19:08:25.748Z,0.80
2018-09-12T19:10:59.662Z,1.23
2018-09-12T19:13:33.584Z,0.90
2018-09-12T19:16:07.353Z,1.20
2018-09-12T19:18:41.362Z,0.97
2018-09-12T19:21:15.170Z,1.17
2018-09-12T19:23:49.066Z,1.20
2018-09-12T19:26:22.898Z,1.20
2018-09-12T19:28:56.855Z,0.90
2018-09-12T19:31:30.761Z,0.63
2018-09-12T19:34:04.521Z,1.00
2018-09-12T19:36:38.705Z,1.13
2018-09-12T19:39:12.545Z,1.00
2018-09-12T19:41:46.646Z,0.80
2018-09-12T19:44:20.536Z,0.83
2018-09-12T19:46:54.357Z,1.10
2018-09-12T19:49:28.013Z,0.90
2018-09-12T19:52:01.885Z,0.97
2018-09-12T19:54:35.777Z,0.97
2018-09-12T19:57:10.084Z,1.23
2018-09-12T19:59:44.036Z,0.90
2018-09-12T20:02:22.470Z,0.90
2018-09-12T20:04:56.926Z,1.20
2018-09-12T20:07:31.868Z,1.10
2018-09-12T20:10:05.725Z,0.87
2018-09-12T20:12:39.586Z,0.90
2018-09-12T20:15:13.488Z,1.07
2018-09-12T20:17:47.224Z,0.80
2018-09-12T20:20:21.217Z,0.80
2018-09-12T20:22:54.991Z,0.80
2018-09-12T20:25:28.736Z,0.93
2018-09-12T20:28:02.700Z,0.90
2018-09-12T20:30:36.417Z,0.90
2018-09-12T20:33:10.336Z,0.60
2018-09-12T20:35:44.163Z,1.00
2018-09-12T20:38:18.111Z,0.63
2018-09-12T20:40:51.958Z,0.40
2018-09-12T20:43:25.654Z,0.70
2018-09-12T20:45:59.346Z,0.40
2018-09-12T20:48:33.239Z,0.80
2018-09-12T20:51:07.070Z,0.57
2018-09-12T20:53:40.917Z,0.80
2018-09-12T20:56:14.684Z,0.87
2018-09-12T20:58:48.481Z,0.70
2018-09-12T21:01:22.327Z,0.60
2018-09-12T21:03:56.102Z,1.13
2018-09-12T21:06:29.864Z,1.03
2018-09-12T21:09:04.034Z,0.83
2018-09-12T21:11:38.073Z,0.60
2018-09-12T21:14:12.004Z,0.57
2018-09-12T21:16:45.668Z,0.97
2018-09-12T21:19:19.475Z,0.53
2018-09-12T21:21:53.281Z,0.40
2018-09-12T21:24:26.898Z,0.90
2018-09-12T21:27:00.493Z,0.17
2018-09-12T21:29:34.276Z,0.30
2018-09-12T21:32:08.113Z,0.77
2018-09-12T21:34:41.828Z,0.43
2018-09-12T21:37:15.403Z,0.53
2018-09-12T21:39:49.226Z,0.40
2018-09-12T21:42:22.861Z,0.80
2018-09-12T21:44:56.562Z,0.60
2018-09-12T21:47:30.286Z,0.60
2018-09-12T21:50:04.206Z,0.50
2018-09-12T21:52:37.917Z,0.60
2018-09-12T21:55:11.542Z,0.50
2018-09-12T21:57:51.621Z,0.60
2018-09-12T22:00:25.544Z,0.40
2018-09-12T22:02:59.292Z,0.60
2018-09-12T22:05:32.950Z,0.47
2018-09-12T22:08:06.867Z,0.43
2018-09-12T22:10:40.663Z,0.83
2018-09-12T22:13:14.392Z,0.67
2018-09-12T22:15:48.273Z,0.57
2018-09-12T22:18:22.221Z,0.70
2018-09-12T22:20:56.102Z,0.80
2018-09-12T22:23:29.800Z,0.77
2018-09-12T22:26:03.781Z,0.50
2018-09-12T22:28:37.653Z,0.80
2018-09-12T22:31:11.475Z,0.53
2018-09-12T22:33:45.343Z,0.60
2018-09-12T22:36:19.113Z,0.80
2018-09-12T22:38:52.885Z,0.63
2018-09-12T22:41:33.106Z,0.90
2018-09-12T22:44:06.849Z,0.50
2018-09-12T22:46:40.754Z,0.63
2018-09-12T22:49:14.666Z,0.57
2018-09-12T22:51:48.437Z,0.80
2018-09-12T22:54:22.197Z,0.60
2018-09-12T22:56:56.174Z,1.10
2018-09-12T22:59:30.040Z,0.97
2018-09-12T23:02:03.855Z,1.00
2018-09-12T23:04:37.788Z,0.83
2018-09-12T23:07:11.575Z,0.70
2018-09-12T23:09:45.345Z,0.50
2018-09-12T23:12:19.320Z,1.00
2018-09-12T23:14:52.997Z,0.67
2018-09-12T23:17:26.960Z,0.87
2018-09-12T23:20:00.908Z,1.10
2018-09-12T23:22:34.764Z,0.80
2018-09-12T23:25:08.500Z,0.60
2018-09-12T23:27:42.392Z,0.80
2018-09-12T23:30:16.084Z,1.13
2018-09-12T23:32:49.707Z,0.60
2018-09-12T23:35:23.386Z,1.07
2018-09-12T23:37:57.296Z,0.80
2018-09-12T23:40:31.018Z,0.73
2018-09-12T23:43:04.999Z,0.87
2018-09-12T23:45:38.766Z,1.00
2018-09-12T23:48:12.576Z,0.77
2018-09-12T23:50:46.394Z,0.87
2018-09-12T23:53:20.275Z,0.50
2018-09-12T23:55:53.885Z,0.80
2018-09-12T23:58:27.773Z,0.80
